Time;durP1;ratioP1;P1;durP2;ratioP2;P2;SDS_P1;SDS_P2;PMS_P1;PMS_P2;Temp;Humidity;BMP_temperature;BMP_pressure;BME280_temperature;BME280_humidity;BME280_pressure;Samples;Min_cycle;Max_cycle;Signal;HPM_P1;HPM_P2
2023/09/27 00:00:44;;;;;;;12.10;6.97;;;;;;;14.04;100.00;95261.81;5009173;28;20034;-86
2023/09/27 00:03:11;;;;;;;14.70;6.60;;;;;;;13.97;100.00;95256.53;5008027;28;20036;-85
2023/09/27 00:05:37;;;;;;;17.15;6.80;;;;;;;13.90;100.00;95260.88;5009208;28;20143;-86
2023/09/27 00:08:06;;;;;;;13.98;6.95;;;;;;;13.77;100.00;95271.16;5006961;28;20053;-86
2023/09/27 00:10:32;;;;;;;11.13;6.30;;;;;;;13.82;100.00;95262.78;5009066;28;20272;-87
2023/09/27 00:12:57;;;;;;;16.65;6.22;;;;;;;13.61;100.00;95253.91;5009347;28;20061;-83
2023/09/27 00:15:23;;;;;;;11.00;6.43;;;;;;;13.42;100.00;95258.91;5014721;28;20014;-81
2023/09/27 00:20:24;;;;;;;11.32;6.82;;;;;;;13.44;100.00;95275.94;6049304;23;20040;-83
2023/09/27 00:22:51;;;;;;;15.30;6.90;;;;;;;13.50;100.00;95269.19;5012349;28;20030;-88
2023/09/27 00:25:16;;;;;;;13.43;7.07;;;;;;;13.54;100.00;95263.47;5028011;28;20044;-88
2023/09/27 00:27:42;;;;;;;13.23;7.50;;;;;;;13.45;100.00;95268.94;5011215;28;20128;-88
2023/09/27 00:30:09;;;;;;;14.65;6.88;;;;;;;13.45;100.00;95263.75;5027950;28;20021;-86
2023/09/27 00:32:35;;;;;;;12.38;7.18;;;;;;;13.44;100.00;95275.13;5027402;28;20017;-87
2023/09/27 00:35:01;;;;;;;11.52;7.20;;;;;;;13.39;100.00;95287.88;5009140;28;20036;-87
2023/09/27 00:37:26;;;;;;;9.02;7.30;;;;;;;13.37;100.00;95282.03;4991385;28;20030;-87
2023/09/27 00:39:52;;;;;;;16.77;7.93;;;;;;;13.35;100.00;95279.63;5008052;28;20404;-87
2023/09/27 00:42:17;;;;;;;15.13;8.02;;;;;;;13.24;100.00;95290.44;5008453;28;20091;-88
2023/09/27 00:44:43;;;;;;;21.75;9.05;;;;;;;13.16;100.00;95296.53;5010311;28;20504;-87
2023/09/27 00:47:09;;;;;;;11.50;7.50;;;;;;;13.22;100.00;95296.81;5008894;28;20030;-88
2023/09/27 00:49:35;;;;;;;14.48;8.13;;;;;;;13.34;100.00;95300.59;5007712;28;20022;-91
2023/09/27 00:52:00;;;;;;;15.13;7.20;;;;;;;13.36;100.00;95298.63;5008223;28;20054;-88
2023/09/27 00:54:27;;;;;;;13.10;7.65;;;;;;;13.29;100.00;95293.34;5007607;28;20045;-89
2023/09/27 00:56:52;;;;;;;15.75;7.68;;;;;;;13.26;100.00;95300.69;5009013;28;20083;-87
2023/09/27 00:59:18;;;;;;;15.02;7.85;;;;;;;13.14;100.00;95313.31;5014584;28;20034;-84
2023/09/27 01:01:45;;;;;;;12.45;7.85;;;;;;;13.18;100.00;95319.78;5005448;28;20034;-88
2023/09/27 01:04:13;;;;;;;16.90;8.43;;;;;;;13.26;100.00;95314.47;4992894;28;20022;-87
2023/09/27 01:06:38;;;;;;;16.98;7.30;;;;;;;13.12;100.00;95310.09;4992512;28;20036;-85
2023/09/27 01:09:03;;;;;;;18.25;7.70;;;;;;;13.05;100.00;95316.94;5015953;28;20080;-83
2023/09/27 01:16:39;;;;;;;16.35;7.53;;;;;;;12.81;100.00;95330.94;5685377;23;20073;-85
2023/09/27 01:19:05;;;;;;;15.18;7.10;;;;;;;13.07;100.00;95314.97;4987079;28;20026;-88
2023/09/27 01:21:31;;;;;;;11.93;7.95;;;;;;;12.91;100.00;95309.91;4989070;28;20030;-86
2023/09/27 01:23:57;;;;;;;14.98;7.50;;;;;;;12.96;100.00;95315.41;5006152;28;20043;-84
2023/09/27 01:26:23;;;;;;;15.02;7.88;;;;;;;12.91;100.00;95321.13;5008964;28;20554;-85
2023/09/27 01:28:49;;;;;;;11.38;6.95;;;;;;;13.00;100.00;95309.66;4996933;28;20026;-87
2023/09/27 01:31:14;;;;;;;15.27;7.88;;;;;;;12.94;100.00;95299.19;4999149;28;20025;-84
2023/09/27 01:33:40;;;;;;;13.60;7.13;;;;;;;12.85;100.00;95302.81;5017124;28;20035;-83
2023/09/27 01:36:06;;;;;;;10.98;7.22;;;;;;;12.92;100.00;95301.13;5555339;23;20495;-81
2023/09/27 01:41:07;;;;;;;9.65;6.35;;;;;;;12.60;100.00;95302.22;6013955;23;20043;-79
2023/09/27 01:43:33;;;;;;;11.38;6.55;;;;;;;12.80;100.00;95295.56;4996161;28;20500;-85
2023/09/27 01:45:58;;;;;;;15.45;7.00;;;;;;;12.75;100.00;95289.28;4988835;28;20022;-84
2023/09/27 01:48:24;;;;;;;21.45;7.60;;;;;;;12.63;100.00;95294.06;4991931;28;20054;-82
2023/09/27 01:50:49;;;;;;;11.85;7.53;;;;;;;12.60;100.00;95297.03;5002912;28;20416;-81
2023/09/27 01:55:50;;;;;;;13.80;6.82;;;;;;;12.58;100.00;95291.19;5809239;22;20054;-82
2023/09/27 01:58:15;;;;;;;14.05;7.03;;;;;;;12.53;100.00;95288.31;4993065;28;20117;-84
2023/09/27 02:00:43;;;;;;;10.65;7.00;;;;;;;12.57;100.00;95286.97;5009661;28;20034;-84
2023/09/27 02:03:08;;;;;;;10.88;6.45;;;;;;;12.54;100.00;95284.72;5010253;28;20408;-82
2023/09/27 02:05:34;;;;;;;16.50;7.35;;;;;;;12.41;100.00;95287.91;5035594;28;20018;-81
2023/09/27 02:22:04;;;;;;;13.73;6.57;;;;;;;12.34;100.00;95299.97;5608199;23;20055;-79
2023/09/27 02:27:04;;;;;;;9.50;6.25;;;;;;;12.37;100.00;95289.22;6026706;23;20016;-80
2023/09/27 02:29:30;;;;;;;10.93;6.90;;;;;;;12.45;100.00;95284.00;4987863;28;20043;-84
2023/09/27 02:31:55;;;;;;;13.35;6.75;;;;;;;12.43;100.00;95288.53;4964277;28;20034;-83
2023/09/27 02:34:21;;;;;;;9.98;7.10;;;;;;;12.52;100.00;95278.91;4959008;28;20483;-85
2023/09/27 03:02:38;;;;;;;8.57;6.32;;;;;;;12.65;100.00;95232.31;5810064;23;20063;-83
2023/09/27 03:05:05;;;;;;;9.85;5.95;;;;;;;12.62;100.00;95230.09;4973268;28;20041;-84
2023/09/27 03:07:33;;;;;;;10.70;6.40;;;;;;;12.66;100.00;95226.16;4973132;28;20034;-85
2023/09/27 03:09:59;;;;;;;21.10;6.28;;;;;;;12.76;100.00;95228.50;4973387;28;20026;-80
2023/09/27 03:12:24;;;;;;;13.30;5.82;;;;;;;12.73;100.00;95224.47;5000695;28;20034;-81
2023/09/27 03:14:50;;;;;;;14.52;6.00;;;;;;;12.74;100.00;95220.91;4992992;28;20030;-82
2023/09/27 03:17:16;;;;;;;11.60;5.35;;;;;;;12.67;100.00;95226.00;4974253;28;20023;-81
2023/09/27 03:19:41;;;;;;;11.20;6.03;;;;;;;12.52;100.00;95221.75;4980013;28;20011;-80
2023/09/27 03:22:07;;;;;;;7.63;5.82;;;;;;;12.48;100.00;95231.69;4999965;28;20035;-81
2023/09/27 03:24:34;;;;;;;9.88;6.03;;;;;;;12.45;100.00;95226.84;4996280;28;20042;-82
2023/09/27 03:27:00;;;;;;;8.80;5.47;;;;;;;12.59;100.00;95239.03;4978075;28;20027;-81
2023/09/27 03:29:25;;;;;;;9.27;5.88;;;;;;;12.44;100.00;95240.81;4993427;28;20006;-80
2023/09/27 03:31:51;;;;;;;12.52;6.53;;;;;;;12.51;100.00;95230.53;4983337;28;20091;-81
2023/09/27 03:34:16;;;;;;;7.95;6.50;;;;;;;12.42;100.00;95237.59;4987444;28;20153;-80
2023/09/27 03:36:44;;;;;;;12.85;6.43;;;;;;;12.42;100.00;95244.56;4998528;28;20049;-82
2023/09/27 03:39:12;;;;;;;14.52;6.88;;;;;;;12.41;100.00;95246.34;5529404;23;20028;-80
2023/09/27 03:41:39;;;;;;;14.95;6.60;;;;;;;12.58;100.00;95252.22;4975759;28;20043;-87
2023/09/27 03:44:04;;;;;;;7.63;6.35;;;;;;;12.52;100.00;95240.72;4954280;28;20039;-82
2023/09/27 03:49:06;;;;;;;9.38;5.82;;;;;;;12.31;100.00;95261.34;5781706;23;20456;-80
2023/09/27 03:51:31;;;;;;;11.85;6.70;;;;;;;12.29;100.00;95265.13;5744953;23;21479;-81
2023/09/27 03:53:56;;;;;;;13.30;6.45;;;;;;;12.31;100.00;95263.13;4996532;28;20045;-81
2023/09/27 03:56:22;;;;;;;9.82;6.68;;;;;;;12.37;100.00;95259.84;4999751;28;20087;-81
2023/09/27 03:58:48;;;;;;;16.27;6.07;;;;;;;12.59;100.00;95259.03;4998306;28;20062;-81
2023/09/27 04:01:15;;;;;;;16.17;6.47;;;;;;;12.49;100.00;95248.09;4990883;28;20035;-80
2023/09/27 04:03:41;;;;;;;11.02;6.32;;;;;;;12.56;100.00;95254.16;4977318;28;20086;-80
2023/09/27 04:06:06;;;;;;;12.80;6.07;;;;;;;12.69;100.00;95250.00;4998282;28;20039;-80
2023/09/27 04:08:33;;;;;;;9.00;5.90;;;;;;;12.63;100.00;95248.09;4986296;28;20463;-81
2023/09/27 04:10:59;;;;;;;12.63;6.07;;;;;;;12.73;100.00;95241.84;4994477;28;20027;-81
2023/09/27 04:13:24;;;;;;;14.57;6.38;;;;;;;12.91;100.00;95237.94;4981666;28;20038;-84
2023/09/27 04:15:50;;;;;;;9.00;6.43;;;;;;;12.87;100.00;95231.50;4971275;28;20026;-85
2023/09/27 04:18:16;;;;;;;11.80;5.80;;;;;;;12.91;100.00;95239.72;4954605;28;20023;-85
2023/09/27 04:20:41;;;;;;;15.65;6.22;;;;;;;12.93;100.00;95235.97;4970442;28;20037;-85
2023/09/27 04:23:06;;;;;;;10.48;6.22;;;;;;;12.97;100.00;95232.00;4971169;28;20023;-81
2023/09/27 04:25:32;;;;;;;10.07;5.55;;;;;;;13.04;100.00;95226.91;4992483;28;20074;-80
2023/09/27 04:27:57;;;;;;;20.10;6.15;;;;;;;12.93;100.00;95224.78;4989059;28;20501;-80
2023/09/27 04:30:24;;;;;;;9.65;5.85;;;;;;;12.93;100.00;95225.59;4987951;28;20185;-88
2023/09/27 04:32:50;;;;;;;8.10;6.20;;;;;;;13.06;100.00;95217.97;4956722;28;20058;-87
2023/09/27 04:35:16;;;;;;;9.60;5.90;;;;;;;13.15;100.00;95223.91;4969785;28;20487;-86
2023/09/27 04:37:42;;;;;;;15.23;6.20;;;;;;;13.35;100.00;95224.19;4968301;28;20125;-83
2023/09/27 04:40:11;;;;;;;17.52;6.45;;;;;;;13.24;100.00;95212.41;4969190;28;20027;-87
2023/09/27 04:42:37;;;;;;;;;;;;;;;13.22;100.00;95216.19;4953326;28;20057;-82
2023/09/27 04:45:03;;;;;;;15.55;6.78;;;;;;;13.14;100.00;95217.09;4969099;28;20392;-86
2023/09/27 04:47:28;;;;;;;12.00;5.85;;;;;;;13.22;100.00;95211.81;4969053;28;20034;-87
2023/09/27 04:49:54;;;;;;;15.65;6.32;;;;;;;13.24;100.00;95215.03;4952955;28;20030;-87
2023/09/27 04:52:20;;;;;;;11.30;6.10;;;;;;;13.34;100.00;95214.75;4952585;28;20485;-86
2023/09/27 04:54:46;;;;;;;11.15;6.07;;;;;;;13.49;100.00;95210.31;4966385;28;20026;-88
2023/09/27 04:57:12;;;;;;;17.17;6.40;;;;;;;13.72;100.00;95198.78;4968004;28;20031;-87
2023/09/27 04:59:37;;;;;;;15.27;7.28;;;;;;;13.88;100.00;95194.34;4968071;28;20113;-88
2023/09/27 05:02:03;;;;;;;19.38;5.63;;;;;;;14.03;100.00;95188.09;4967690;28;20031;-87
2023/09/27 05:04:29;;;;;;;12.63;6.20;;;;;;;14.16;100.00;95183.00;4966366;28;20026;-87
2023/09/27 05:06:54;;;;;;;8.60;5.50;;;;;;;14.27;100.00;95194.72;4968001;28;20084;-86
2023/09/27 05:09:19;;;;;;;13.60;5.40;;;;;;;14.60;100.00;95176.78;4983518;28;20035;-88
2023/09/27 05:11:46;;;;;;;19.38;5.93;;;;;;;14.75;100.00;95174.88;4967304;28;20015;-87
2023/09/27 05:14:12;;;;;;;13.52;5.60;;;;;;;15.08;100.00;95173.28;4967726;28;20578;-87
2023/09/27 05:16:38;;;;;;;10.35;5.65;;;;;;;16.02;100.00;95163.78;4968103;28;20030;-87
2023/09/27 05:19:03;;;;;;;8.82;4.80;;;;;;;16.66;100.00;95158.03;4967696;28;20015;-87
2023/09/27 05:21:29;;;;;;;8.93;5.00;;;;;;;17.61;100.00;95145.09;4966413;28;20053;-85
2023/09/27 05:23:54;;;;;;;7.78;4.65;;;;;;;18.75;100.00;95134.44;4967749;28;20111;-85
2023/09/27 05:26:19;;;;;;;16.70;5.15;;;;;;;19.31;100.00;95134.22;4982858;28;20505;-82
2023/09/27 05:28:45;;;;;;;13.05;4.80;;;;;;;19.32;100.00;95133.22;4967332;28;20022;-81
2023/09/27 05:31:10;;;;;;;13.43;4.72;;;;;;;18.93;100.00;95134.44;4967523;28;20023;-82
2023/09/27 05:33:36;;;;;;;11.95;4.38;;;;;;;18.84;100.00;95133.94;4966475;28;20042;-83
2023/09/27 05:36:02;;;;;;;16.60;5.05;;;;;;;18.91;100.00;95126.78;4968975;28;20722;-81
2023/09/27 05:38:28;;;;;;;11.70;4.97;;;;;;;18.80;100.00;95132.75;4950062;28;20358;-83
2023/09/27 05:40:53;;;;;;;6.25;4.10;;;;;;;18.93;100.00;95137.06;4968824;28;20087;-83
2023/09/27 05:43:19;;;;;;;6.68;4.28;;;;;;;18.55;100.00;95134.59;4966152;28;20069;-85
2023/09/27 05:45:44;;;;;;;13.10;4.28;;;;;;;18.80;100.00;95134.56;4951488;28;20039;-84
2023/09/27 05:48:12;;;;;;;7.10;4.53;;;;;;;19.45;100.00;95126.00;4966582;28;20027;-83
2023/09/27 05:50:37;;;;;;;11.82;4.35;;;;;;;19.98;100.00;95135.81;4966749;28;20027;-78
2023/09/27 06:04:36;;;;;;;9.60;4.97;;;;;;;22.03;100.00;95124.03;5098278;27;20631;-80
2023/09/27 06:07:02;;;;;;;7.55;3.80;;;;;;;23.77;86.06;95135.06;5098887;28;20036;-80
2023/09/27 06:09:28;;;;;;;8.27;3.97;;;;;;;24.75;79.59;95137.34;5065428;28;20016;-80
2023/09/27 06:11:53;;;;;;;6.50;3.10;;;;;;;25.23;73.25;95144.28;5085549;28;20012;-80
2023/09/27 06:14:21;;;;;;;10.93;3.83;;;;;;;26.65;66.27;95145.56;5066178;28;20451;-79
2023/09/27 06:16:47;;;;;;;7.97;3.50;;;;;;;28.05;58.09;95143.66;5067831;28;20086;-80
2023/09/27 06:19:12;;;;;;;9.00;3.63;;;;;;;28.71;53.18;95137.88;5049025;28;20036;-81
2023/09/27 06:21:39;;;;;;;5.60;3.13;;;;;;;25.90;60.97;95144.34;5085141;28;20027;-79
2023/09/27 06:24:05;;;;;;;9.38;3.10;;;;;;;28.02;56.04;95144.16;5066409;28;20050;-80
2023/09/27 06:26:30;;;;;;;8.30;3.05;;;;;;;26.37;58.42;95149.50;5066006;28;20032;-79
2023/09/27 06:28:56;;;;;;;7.88;2.95;;;;;;;28.30;51.78;95145.34;5084455;28;20096;-80
2023/09/27 06:31:21;;;;;;;10.00;3.63;;;;;;;27.49;54.31;95153.72;5066464;28;20510;-83
2023/09/27 06:33:47;;;;;;;6.10;3.17;;;;;;;28.08;49.95;95152.97;5085138;28;20036;-80
2023/09/27 06:36:15;;;;;;;8.75;3.08;;;;;;;27.72;51.51;95157.63;5066250;28;20477;-81
2023/09/27 06:38:40;;;;;;;;;;;;;;;26.83;54.89;95157.53;5067709;28;20063;-80
2023/09/27 06:41:07;;;;;;;7.70;3.43;;;;;;;26.74;53.77;95151.94;5049439;28;19951;-81
2023/09/27 06:43:33;;;;;;;7.78;3.28;;;;;;;29.21;48.42;95163.31;5067460;28;20481;-82
2023/09/27 06:46:01;;;;;;;7.22;3.10;;;;;;;29.65;47.24;95158.59;5067034;28;20067;-81
2023/09/27 06:48:27;;;;;;;5.85;2.72;;;;;;;28.54;47.13;95154.28;5066723;28;20066;-81
2023/09/27 06:50:53;;;;;;;5.78;3.10;;;;;;;27.95;50.05;95159.66;5066957;28;20025;-81
2023/09/27 06:53:18;;;;;;;7.38;3.28;;;;;;;30.08;46.38;95164.00;5072107;28;20595;-80
2023/09/27 06:55:44;;;;;;;5.35;3.70;;;;;;;27.02;50.04;95159.38;5083818;28;20473;-81
2023/09/27 06:58:11;;;;;;;9.30;3.35;;;;;;;29.49;44.41;95167.06;5083944;28;20031;-80
2023/09/27 07:00:40;;;;;;;9.07;2.92;;;;;;;29.64;43.13;95170.34;5083525;28;20020;-80
2023/09/27 07:03:06;;;;;;;8.32;3.00;;;;;;;30.19;41.92;95160.06;5084319;28;20051;-80
2023/09/27 07:05:33;;;;;;;9.10;3.22;;;;;;;28.97;42.78;95165.13;5069957;28;20022;-80
2023/09/27 07:07:58;;;;;;;9.65;3.40;;;;;;;28.72;45.26;95158.16;5069985;28;20115;-81
2023/09/27 07:10:24;;;;;;;9.25;2.80;;;;;;;31.30;40.32;95161.06;5052133;28;20036;-80
2023/09/27 07:12:50;;;;;;;9.32;2.95;;;;;;;29.93;43.56;95164.16;5069797;28;20021;-79
2023/09/27 07:15:15;;;;;;;7.70;3.13;;;;;;;29.22;44.34;95167.56;5052641;28;20036;-81
2023/09/27 07:17:43;;;;;;;7.25;3.00;;;;;;;28.72;45.10;95156.28;5069730;28;20044;-80
2023/09/27 07:22:47;;;;;;;5.85;2.95;;;;;;;30.38;41.90;95150.19;5069422;28;19924;-82
2023/09/27 07:25:16;;;;;;;7.13;2.45;;;;;;;29.55;42.55;95163.25;5070367;28;20370;-82
2023/09/27 07:27:42;;;;;;;4.80;2.30;;;;;;;31.43;41.03;95157.59;5052384;28;20017;-82
2023/09/27 07:30:11;;;;;;;4.60;3.05;;;;;;;30.75;42.13;95162.75;5069373;28;20043;-81
2023/09/27 07:32:39;;;;;;;7.50;2.58;;;;;;;30.22;42.59;95157.63;5069599;28;20035;-82
2023/09/27 07:35:10;;;;;;;7.63;2.88;;;;;;;28.39;44.79;95153.56;5069535;28;20141;-80
2023/09/27 07:37:39;;;;;;;5.30;2.90;;;;;;;27.68;45.15;95160.03;5069202;28;20107;-81
2023/09/27 07:40:11;;;;;;;11.13;3.22;;;;;;;29.13;43.63;95163.91;5069105;28;20103;-82
2023/09/27 07:42:47;;;;;;;6.38;3.03;;;;;;;26.79;49.32;95159.09;5069659;28;20170;-81
2023/09/27 07:45:28;;;;;;;10.20;3.05;;;;;;;26.32;52.01;95159.34;5068497;28;20035;-82
2023/09/27 07:47:54;;;;;;;7.20;2.72;;;;;;;25.55;54.31;95166.25;5069424;28;20027;-81
2023/09/27 07:50:21;;;;;;;7.03;3.00;;;;;;;25.49;56.23;95159.31;5068426;28;20066;-81
2023/09/27 07:52:47;;;;;;;7.20;3.00;;;;;;;25.61;54.80;95167.06;5068789;28;20120;-80
2023/09/27 07:55:14;;;;;;;7.85;2.67;;;;;;;25.54;53.19;95161.19;5068863;28;20020;-82
2023/09/27 07:57:45;;;;;;;6.47;2.83;;;;;;;25.74;52.51;95163.13;5051773;28;20408;-82
2023/09/27 08:00:15;;;;;;;8.73;2.80;;;;;;;25.93;52.21;95154.44;5052719;28;20570;-81
2023/09/27 08:02:41;;;;;;;10.63;3.15;;;;;;;24.65;53.36;95158.44;5067671;28;20078;-81
2023/09/27 08:05:10;;;;;;;9.65;3.10;;;;;;;25.41;52.69;95149.16;5068984;28;20056;-82
2023/09/27 08:07:39;;;;;;;6.00;3.08;;;;;;;25.46;52.00;95153.69;5067946;28;20119;-83
2023/09/27 08:10:06;;;;;;;12.88;3.40;;;;;;;25.62;53.08;95153.50;5068872;28;20166;-81
2023/09/27 08:12:33;;;;;;;10.40;3.28;;;;;;;25.70;50.73;95154.88;5051657;28;20028;-82
2023/09/27 08:14:59;;;;;;;7.20;2.63;;;;;;;25.74;49.16;95150.66;5051121;28;20022;-81
2023/09/27 08:17:25;;;;;;;5.47;2.20;;;;;;;26.00;47.72;95146.22;5068144;28;20029;-81
2023/09/27 08:19:51;;;;;;;10.30;2.63;;;;;;;24.78;50.43;95154.56;5067666;28;20023;-80
2023/09/27 08:22:16;;;;;;;7.22;2.88;;;;;;;25.23;49.18;95156.75;5068250;28;20036;-81
2023/09/27 08:24:42;;;;;;;8.00;2.63;;;;;;;24.66;48.60;95154.72;5050758;28;20032;-85
2023/09/27 08:27:07;;;;;;;7.35;2.80;;;;;;;25.21;49.47;95141.09;5069790;28;20027;-82
2023/09/27 08:29:32;;;;;;;9.20;3.08;;;;;;;25.44;48.08;95148.63;5067392;28;20266;-82
2023/09/27 08:31:58;;;;;;;14.23;2.90;;;;;;;25.14;49.51;95145.84;5068201;28;20028;-83
2023/09/27 08:34:23;;;;;;;8.10;2.80;;;;;;;24.98;50.44;95147.56;5069379;28;20087;-83
2023/09/27 08:36:49;;;;;;;8.88;2.90;;;;;;;25.56;46.29;95149.25;5068846;28;20020;-82
2023/09/27 08:39:15;;;;;;;6.80;2.45;;;;;;;26.13;46.09;95138.56;5068194;28;20029;-80
2023/09/27 08:41:40;;;;;;;5.15;2.63;;;;;;;25.37;46.95;95155.22;5067056;28;20081;-81
2023/09/27 08:44:07;;;;;;;8.88;2.42;;;;;;;25.46;45.82;95145.75;5067947;28;20128;-83
2023/09/27 08:46:34;;;;;;;7.13;2.90;;;;;;;24.26;49.55;95143.78;5050679;28;20127;-83
2023/09/27 08:49:00;;;;;;;9.15;3.55;;;;;;;24.90;50.23;95147.25;5050872;28;20031;-86
2023/09/27 08:51:27;;;;;;;8.05;3.65;;;;;;;25.54;50.95;95143.41;5051283;28;20579;-82
2023/09/27 08:53:52;;;;;;;9.40;2.85;;;;;;;25.27;48.38;95140.06;5050565;28;20060;-81
2023/09/27 08:56:20;;;;;;;10.40;3.05;;;;;;;25.15;48.54;95140.25;5068100;28;20463;-81
2023/09/27 08:58:48;;;;;;;12.80;3.33;;;;;;;25.12;49.22;95142.63;5066677;28;20078;-83
2023/09/27 09:01:14;;;;;;;8.45;2.95;;;;;;;24.39;49.04;95144.19;5068161;28;20493;-80
2023/09/27 09:03:41;;;;;;;8.05;2.72;;;;;;;24.40;49.96;95135.16;5066543;28;20098;-82
2023/09/27 09:06:12;;;;;;;9.10;3.03;;;;;;;24.45;50.21;95129.13;5068099;28;20024;-81
2023/09/27 09:08:42;;;;;;;12.35;3.42;;;;;;;25.72;47.58;95136.06;5067403;28;20028;-81
2023/09/27 09:11:12;;;;;;;8.75;3.03;;;;;;;24.91;48.67;95139.06;5067000;28;20029;-82
2023/09/27 09:14:03;;;;;;;5.68;3.00;;;;;;;24.73;49.33;95135.97;5067692;28;20029;-80
2023/09/27 09:16:39;;;;;;;9.52;2.83;;;;;;;24.22;49.92;95138.19;5066275;28;20025;-81
2023/09/27 09:19:24;;;;;;;9.38;2.83;;;;;;;24.62;48.52;95133.25;5067890;28;20048;-81
2023/09/27 09:22:03;;;;;;;9.00;3.22;;;;;;;25.04;48.43;95124.56;5068910;28;20069;-83
2023/09/27 09:24:29;;;;;;;8.88;2.97;;;;;;;25.38;47.98;95123.16;5065833;28;20035;-83
2023/09/27 09:27:10;;;;;;;10.25;3.00;;;;;;;25.26;48.55;95127.06;5067356;28;20021;-83
2023/09/27 09:29:46;;;;;;;4.78;2.42;;;;;;;25.50;51.71;95137.03;5065810;28;20028;-82
2023/09/27 09:32:18;;;;;;;8.90;3.08;;;;;;;25.43;52.05;95127.69;5068447;28;20032;-85
2023/09/27 09:34:48;;;;;;;8.23;3.45;;;;;;;25.67;55.53;95127.00;5051099;28;20375;-83
2023/09/27 09:37:20;;;;;;;6.35;3.55;;;;;;;26.42;53.14;95119.50;5066783;28;20028;-84
2023/09/27 09:39:47;;;;;;;5.97;2.90;;;;;;;26.48;49.07;95118.44;5068789;28;20461;-80
2023/09/27 09:42:14;;;;;;;5.90;3.00;;;;;;;26.39;50.13;95126.16;5066221;28;20104;-86
2023/09/27 09:44:40;;;;;;;4.97;2.97;;;;;;;26.18;48.18;95119.19;5066955;28;20574;-83
2023/09/27 09:47:10;;;;;;;6.80;2.92;;;;;;;25.54;49.89;95124.84;5049480;28;20333;-85
2023/09/27 09:49:35;;;;;;;14.63;3.30;;;;;;;25.31;48.59;95127.06;5067196;28;20074;-82
2023/09/27 09:52:03;;;;;;;8.65;3.08;;;;;;;24.47;49.88;95121.72;5066885;28;20033;-84
2023/09/27 09:54:46;;;;;;;10.35;2.95;;;;;;;25.51;48.36;95112.09;5067663;28;20035;-83
2023/09/27 09:57:12;;;;;;;5.03;2.88;;;;;;;26.36;47.40;95120.56;5067592;28;20043;-82
2023/09/27 09:59:57;;;;;;;9.00;3.13;;;;;;;26.14;47.66;95107.47;5065794;28;20439;-81
2023/09/27 10:02:27;;;;;;;14.50;3.30;;;;;;;26.18;46.15;95106.72;5066918;28;20051;-81
2023/09/27 10:04:55;;;;;;;9.93;3.20;;;;;;;25.54;47.44;95097.50;5066621;28;20064;-81
2023/09/27 10:07:21;;;;;;;7.82;2.80;;;;;;;25.59;48.55;95114.22;5065249;28;20021;-82
2023/09/27 10:09:47;;;;;;;14.82;3.30;;;;;;;25.77;47.66;95109.53;5066793;28;20036;-82
2023/09/27 10:12:13;;;;;;;12.70;2.85;;;;;;;25.35;46.93;95113.06;5049206;28;20052;-83
2023/09/27 10:14:39;;;;;;;5.47;3.33;;;;;;;24.17;50.70;95103.75;5050050;28;20060;-84
2023/09/27 10:17:05;;;;;;;11.18;2.70;;;;;;;24.89;49.71;95106.69;5067286;28;20075;-81
2023/09/27 10:19:30;;;;;;;7.65;3.42;;;;;;;24.82;49.59;95100.03;5066520;28;20021;-84
2023/09/27 10:22:07;;;;;;;6.75;2.65;;;;;;;25.69;48.03;95087.72;5067817;28;20021;-84
2023/09/27 10:24:34;;;;;;;9.00;3.33;;;;;;;26.51;46.52;95086.81;5050076;28;20089;-82
2023/09/27 10:27:00;;;;;;;12.73;3.53;;;;;;;25.59;47.79;95093.00;5067254;28;20077;-83
2023/09/27 10:29:27;;;;;;;5.78;2.67;;;;;;;25.50;47.56;95083.16;5065471;28;20421;-83
2023/09/27 10:31:58;;;;;;;6.03;2.90;;;;;;;25.33;48.58;95083.34;5066962;28;20021;-84
2023/09/27 10:34:35;;;;;;;6.43;2.60;;;;;;;24.63;50.21;95079.19;5067009;28;20379;-82
2023/09/27 10:37:02;;;;;;;7.70;3.10;;;;;;;24.79;51.20;95077.44;5066913;28;20029;-84
2023/09/27 10:39:27;;;;;;;7.43;2.90;;;;;;;25.79;49.12;95073.69;5067526;28;20024;-82
2023/09/27 10:41:53;;;;;;;7.13;2.97;;;;;;;26.25;49.02;95066.63;5053212;28;20031;-84
2023/09/27 10:44:45;;;;;;;9.65;2.88;;;;;;;26.21;48.98;95070.84;5071891;28;20024;-86
2023/09/27 10:47:12;;;;;;;9.57;3.45;;;;;;;25.80;56.16;95071.84;5049218;28;20047;-83
2023/09/27 10:49:38;;;;;;;8.32;3.53;;;;;;;26.09;57.61;95057.00;5071679;28;20021;-84
2023/09/27 10:52:14;;;;;;;12.13;3.00;;;;;;;25.89;54.42;95051.66;5052716;28;20564;-83
2023/09/27 10:54:39;;;;;;;10.27;2.97;;;;;;;26.14;50.29;95011.84;5070046;28;20036;-81
2023/09/27 10:57:06;;;;;;;12.10;2.85;;;;;;;26.35;47.62;95063.97;5070586;28;20029;-82
2023/09/27 10:59:31;;;;;;;8.70;3.40;;;;;;;26.37;48.17;95053.06;5069538;28;20040;-83
2023/09/27 11:01:59;;;;;;;6.82;2.75;;;;;;;26.51;47.22;95060.22;5053652;28;20468;-90
2023/09/27 11:04:25;;;;;;;13.05;2.80;;;;;;;26.20;46.06;95048.00;5068352;28;20103;-85
2023/09/27 11:06:51;;;;;;;9.55;2.85;;;;;;;26.69;45.97;95057.00;5051737;28;20456;-85
2023/09/27 11:09:19;;;;;;;10.02;2.63;;;;;;;26.51;45.22;95043.50;5068179;28;20052;-84
2023/09/27 11:11:49;;;;;;;6.95;2.67;;;;;;;25.82;47.22;95043.16;5068442;28;20486;-82
2023/09/27 11:14:31;;;;;;;8.40;2.90;;;;;;;25.66;47.05;95042.34;5067766;28;20107;-86
2023/09/27 11:17:16;;;;;;;6.97;3.20;;;;;;;25.39;47.74;95041.72;5068372;28;20310;-90
2023/09/27 11:19:42;;;;;;;9.27;2.80;;;;;;;26.33;46.00;95031.53;5068452;28;20036;-86
2023/09/27 11:22:08;;;;;;;11.90;3.20;;;;;;;26.67;45.74;95032.56;5068037;28;20021;-83
2023/09/27 11:24:40;;;;;;;10.43;3.50;;;;;;;25.86;46.95;95030.97;5051323;28;20031;-82
2023/09/27 11:27:08;;;;;;;7.82;2.85;;;;;;;25.01;49.29;95029.63;5067658;28;20025;-85
2023/09/27 11:29:35;;;;;;;7.95;2.80;;;;;;;25.90;49.93;95024.06;5069766;28;20506;-83
2023/09/27 11:32:00;;;;;;;4.57;2.55;;;;;;;25.42;49.14;95026.06;5067778;28;20039;-84
2023/09/27 11:34:25;;;;;;;9.32;3.30;;;;;;;25.43;48.75;95040.91;5069088;28;20421;-83
2023/09/27 11:36:53;;;;;;;8.02;3.22;;;;;;;25.45;51.51;95036.16;5069318;28;20108;-83
2023/09/27 11:39:20;;;;;;;12.82;3.63;;;;;;;24.93;61.86;95030.91;5067575;28;20031;-85
2023/09/27 11:41:46;;;;;;;10.43;3.33;;;;;;;25.53;53.18;95027.72;5067997;28;20466;-84
2023/09/27 11:47:18;;;;;;;6.57;3.13;;;;;;;25.47;50.17;95012.00;5082285;23;20073;-84
2023/09/27 11:49:43;;;;;;;9.95;3.33;;;;;;;25.66;49.21;95007.84;5008868;28;20046;-83
2023/09/27 11:52:10;;;;;;;10.52;3.45;;;;;;;25.39;49.80;95005.38;5009986;28;20033;-84
2023/09/27 11:54:42;;;;;;;4.40;3.10;;;;;;;24.89;50.72;95010.47;5009937;28;20037;-92
2023/09/27 11:57:08;;;;;;;8.73;3.15;;;;;;;25.29;50.39;95009.84;5008652;28;20167;-89
2023/09/27 11:59:34;;;;;;;12.02;3.38;;;;;;;25.03;51.21;95006.31;4993083;28;20034;-91
2023/09/27 12:01:59;;;;;;;5.35;3.05;;;;;;;25.51;50.75;95005.97;5008205;28;20034;-94
2023/09/27 12:04:25;;;;;;;7.82;3.10;;;;;;;24.85;51.46;95010.19;5010047;28;20037;-86
2023/09/27 12:06:50;;;;;;;6.43;3.60;;;;;;;25.30;52.93;95011.44;5009539;28;20030;-90
2023/09/27 12:09:34;;;;;;;5.38;3.40;;;;;;;24.85;63.76;95012.84;5010145;28;20034;-89
2023/09/27 12:12:18;;;;;;;8.63;3.90;;;;;;;24.54;65.31;95001.25;5009699;28;20414;-91
2023/09/27 12:14:43;;;;;;;6.95;3.85;;;;;;;24.39;65.28;95013.59;5008547;28;20030;-89
2023/09/27 12:17:09;;;;;;;10.32;3.70;;;;;;;24.07;67.40;95024.19;5010050;28;20056;-88
2023/09/27 12:19:34;;;;;;;8.48;3.97;;;;;;;24.13;69.55;95007.34;5007447;28;20429;-92
2023/09/27 12:22:19;;;;;;;8.25;4.05;;;;;;;24.12;70.61;94997.78;4992346;28;20025;-86
2023/09/27 12:27:29;;;;;;;8.98;4.18;;;;;;;23.68;73.78;95002.41;5007480;28;20169;-91
2023/09/27 12:29:54;;;;;;;11.25;3.78;;;;;;;23.65;74.81;95004.75;5008411;28;20121;-84
2023/09/27 12:32:20;;;;;;;8.43;3.88;;;;;;;23.36;75.72;95007.63;5006773;28;20026;-91
2023/09/27 12:34:45;;;;;;;10.25;4.22;;;;;;;23.18;76.93;95000.03;5008337;28;20033;-93
2023/09/27 12:37:10;;;;;;;17.92;4.10;;;;;;;23.26;77.43;95004.06;5006635;28;20507;-86
2023/09/27 12:39:37;;;;;;;14.38;4.45;;;;;;;23.31;76.70;94999.63;5008693;28;20034;-87
2023/09/27 12:42:02;;;;;;;13.20;4.40;;;;;;;23.19;76.81;94990.25;5008315;28;20033;-87
2023/09/27 12:44:28;;;;;;;9.63;4.35;;;;;;;23.16;77.92;94991.53;4990627;28;20088;-90